createdAt,value
2023-04-30T00:00:10.552Z,98495.69
2023-04-30T00:03:13.632Z,98488.19
2023-04-30T00:06:16.778Z,98492.19
2023-04-30T00:09:21.054Z,98499.44
2023-04-30T00:12:23.745Z,98493.31
2023-04-30T00:15:26.501Z,98492.53
2023-04-30T00:18:29.267Z,98493.84
2023-04-30T00:21:32.020Z,98494.34
2023-04-30T00:24:36.286Z,98482.00
2023-04-30T00:27:40.832Z,98489.03
2023-04-30T00:30:43.807Z,98491.72
2023-04-30T00:33:46.487Z,98491.47
2023-04-30T00:36:49.227Z,98490.69
2023-04-30T00:39:53.335Z,98490.19
2023-04-30T00:42:56.422Z,98494.75
2023-04-30T00:45:59.493Z,98492.59
2023-04-30T00:49:04.960Z,98493.88
2023-04-30T00:52:08.017Z,98500.13
2023-04-30T00:55:12.981Z,98497.44
2023-04-30T00:58:16.512Z,98500.13
2023-04-30T01:01:19.694Z,98509.06
2023-04-30T01:04:22.968Z,98507.19
2023-04-30T01:07:28.337Z,98496.41
2023-04-30T01:10:39.174Z,98501.81
2023-04-30T01:13:49.669Z,98495.84
2023-04-30T01:16:59.531Z,98487.25
2023-04-30T01:20:04.221Z,98495.84
2023-04-30T01:23:15.379Z,98492.59
2023-04-30T01:26:30.914Z,98505.81
2023-04-30T01:29:37.530Z,98493.44
2023-04-30T01:32:40.295Z,98487.25
2023-04-30T01:36:13.077Z,98484.28
2023-04-30T01:39:35.045Z,98487.50
2023-04-30T01:42:46.369Z,98493.41
2023-04-30T01:46:01.967Z,98485.31
2023-04-30T01:49:14.113Z,98482.88
2023-04-30T01:52:21.789Z,98482.06
2023-04-30T01:55:31.320Z,98488.25
2023-04-30T01:58:35.941Z,98482.34
2023-04-30T02:01:40.123Z,98487.16
2023-04-30T02:04:42.880Z,98490.94
2023-04-30T02:07:47.686Z,98485.00
2023-04-30T02:10:50.351Z,98481.78
2023-04-30T02:13:53.056Z,98477.25
2023-04-30T02:16:57.119Z,98478.56
2023-04-30T02:20:00.096Z,98475.88
2023-04-30T02:23:03.055Z,98470.78
2023-04-30T02:26:05.747Z,98474.56
2023-04-30T02:29:08.461Z,98477.25
2023-04-30T02:32:12.604Z,98474.03
2023-04-30T02:35:15.259Z,98470.25
2023-04-30T02:38:17.962Z,98471.59
2023-04-30T02:41:21.600Z,98472.94
2023-04-30T02:44:24.348Z,98473.75
2023-04-30T02:47:28.551Z,98469.75
2023-04-30T02:50:31.542Z,98467.06
2023-04-30T02:53:34.458Z,98479.44
2023-04-30T02:56:38.760Z,98472.72
2023-04-30T02:59:45.741Z,98473.00
2023-04-30T03:02:50.051Z,98471.94
2023-04-30T03:05:52.846Z,98476.03
2023-04-30T03:08:55.545Z,98477.66
2023-04-30T03:11:58.298Z,98483.81
2023-04-30T03:15:01.159Z,98474.66
2023-04-30T03:18:05.876Z,98472.50
2023-04-30T03:21:09.621Z,98474.44
2023-04-30T03:24:12.305Z,98480.91
2023-04-30T03:27:16.919Z,98476.34
2023-04-30T03:30:19.883Z,98475.81
2023-04-30T03:33:24.021Z,98477.25
2023-04-30T03:36:27.225Z,98475.38
2023-04-30T03:39:30.016Z,98473.50
2023-04-30T03:42:32.758Z,98481.88
2023-04-30T03:45:35.492Z,98487.78
2023-04-30T03:48:39.587Z,98479.72
2023-04-30T03:51:42.415Z,98487.28
2023-04-30T03:54:45.090Z,98489.72
2023-04-30T03:57:47.922Z,98480.59
2023-04-30T04:00:51.037Z,98484.91
2023-04-30T04:03:55.566Z,98475.22
2023-04-30T04:06:58.305Z,98476.06
2023-04-30T04:10:01.386Z,98474.94
2023-04-30T04:13:04.452Z,98484.88
2023-04-30T04:16:08.739Z,98484.34
2023-04-30T04:19:13.832Z,98493.25
2023-04-30T04:22:16.728Z,98487.56
2023-04-30T04:25:20.580Z,98492.94
2023-04-30T04:28:23.313Z,98494.03
2023-04-30T04:31:26.851Z,98495.91
2023-04-30T04:34:30.919Z,98496.44
2023-04-30T04:37:33.689Z,98501.53
2023-04-30T04:40:37.238Z,98500.44
2023-04-30T04:43:39.955Z,98500.41
2023-04-30T04:46:44.534Z,98499.31
2023-04-30T04:49:48.670Z,98506.03
2023-04-30T04:52:51.564Z,98499.84
2023-04-30T04:55:54.228Z,98500.66
2023-04-30T04:58:57.035Z,98501.19
2023-04-30T05:01:59.844Z,98507.59
2023-04-30T05:05:04.301Z,98502.50
2023-04-30T05:08:07.051Z,98497.91
2023-04-30T05:11:09.704Z,98502.97
2023-04-30T05:14:12.395Z,98500.00
2023-04-30T05:17:15.346Z,98499.97
2023-04-30T05:20:19.679Z,98506.94
2023-04-30T05:23:22.375Z,98506.13
2023-04-30T05:26:25.362Z,98510.44
2023-04-30T05:29:28.079Z,98507.22
2023-04-30T05:32:30.982Z,98506.13
2023-04-30T05:35:36.320Z,98505.59
2023-04-30T05:38:39.198Z,98509.09
2023-04-30T05:41:41.864Z,98513.38
2023-04-30T05:44:44.711Z,98514.72
2023-04-30T05:47:47.457Z,98514.72
2023-04-30T05:50:51.517Z,98504.44
2023-04-30T05:53:54.358Z,98507.69
2023-04-30T05:56:56.975Z,98501.50
2023-04-30T06:00:00.704Z,98511.19
2023-04-30T06:03:03.656Z,98497.97
2023-04-30T06:06:08.273Z,98513.59
2023-04-30T06:09:11.685Z,98507.22
2023-04-30T06:12:16.300Z,98505.34
2023-04-30T06:15:19.334Z,98511.47
2023-04-30T06:18:22.085Z,98509.25
2023-04-30T06:21:26.187Z,98515.75
2023-04-30T06:24:30.289Z,98519.28
2023-04-30T06:27:33.237Z,98521.13
2023-04-30T06:30:36.001Z,98516.47
2023-04-30T06:33:38.721Z,98510.84
2023-04-30T06:36:42.875Z,98521.78
2023-04-30T06:39:45.654Z,98511.78
2023-04-30T06:42:48.393Z,98513.66
2023-04-30T06:45:51.464Z,98519.31
2023-04-30T06:48:54.452Z,98518.13
2023-04-30T06:51:58.931Z,98521.28
2023-04-30T06:55:02.077Z,98516.28
2023-04-30T06:58:05.770Z,98517.47
2023-04-30T07:01:08.658Z,98520.94
2023-04-30T07:04:11.641Z,98523.41
2023-04-30T07:07:15.916Z,98515.53
2023-04-30T07:10:18.649Z,98512.38
2023-04-30T07:13:21.330Z,98507.91
2023-04-30T07:16:27.767Z,98502.31
2023-04-30T07:19:30.807Z,98506.13
2023-04-30T07:22:35.608Z,98507.00
2023-04-30T07:25:38.281Z,98506.28
2023-04-30T07:28:40.924Z,98499.47
2023-04-30T07:31:43.634Z,98497.34
2023-04-30T07:34:46.359Z,98493.50
2023-04-30T07:37:50.368Z,98499.19
2023-04-30T07:40:55.377Z,98489.97
2023-04-30T07:43:59.805Z,98487.47
2023-04-30T07:47:02.872Z,98486.06
2023-04-30T07:50:06.378Z,98490.19
2023-04-30T07:53:10.468Z,98481.06
2023-04-30T07:56:13.143Z,98486.81
2023-04-30T07:59:15.986Z,98479.00
2023-04-30T08:02:18.804Z,98474.09
2023-04-30T08:05:21.765Z,98479.28
2023-04-30T08:08:25.850Z,98478.06
2023-04-30T08:11:28.539Z,98482.19
2023-04-30T08:14:31.435Z,98471.16
2023-04-30T08:17:34.776Z,98477.47
2023-04-30T08:20:38.639Z,98477.25
2023-04-30T08:23:43.021Z,98474.44
2023-04-30T08:26:45.717Z,98476.53
2023-04-30T08:29:48.425Z,98472.88
2023-04-30T08:32:51.361Z,98473.81
2023-04-30T08:35:54.709Z,98478.75
2023-04-30T08:38:58.721Z,98479.91
2023-04-30T08:42:05.262Z,98473.38
2023-04-30T08:45:12.829Z,98478.56
2023-04-30T08:48:16.890Z,98479.09
2023-04-30T08:51:19.825Z,98478.38
2023-04-30T08:54:26.101Z,98481.41
2023-04-30T08:57:28.933Z,98478.94
2023-04-30T09:00:33.547Z,98480.38
2023-04-30T09:03:36.659Z,98488.31
2023-04-30T09:06:39.502Z,98486.19
2023-04-30T09:09:44.136Z,98476.06
2023-04-30T09:12:59.809Z,98477.19
2023-04-30T09:16:02.999Z,98481.38
2023-04-30T09:19:05.778Z,98476.38
2023-04-30T09:22:21.430Z,98486.38
2023-04-30T09:25:40.188Z,98477.03
2023-04-30T09:28:56.492Z,98473.59
2023-04-30T09:32:09.759Z,98472.16
2023-04-30T09:35:30.623Z,98476.47
2023-04-30T09:38:34.039Z,98469.94
2023-04-30T09:41:38.764Z,98471.25
2023-04-30T09:44:42.336Z,98465.50
2023-04-30T09:47:45.918Z,98472.66
2023-04-30T09:50:49.737Z,98471.75
2023-04-30T09:53:52.955Z,98470.88
2023-04-30T09:56:58.984Z,98474.78
2023-04-30T10:00:02.293Z,98480.38
2023-04-30T10:03:08.232Z,98481.19
2023-04-30T10:06:15.615Z,98474.06
2023-04-30T10:09:18.991Z,98471.34
2023-04-30T10:12:27.125Z,98471.63
2023-04-30T10:15:33.815Z,98459.97
2023-04-30T10:18:40.134Z,98468.63
2023-04-30T10:21:46.694Z,98467.63
2023-04-30T10:24:50.787Z,98466.03
2023-04-30T10:27:55.141Z,98470.44
2023-04-30T10:30:58.729Z,98466.72
2023-04-30T10:34:10.836Z,98463.22
2023-04-30T10:37:22.409Z,98459.28
2023-04-30T10:40:27.769Z,98454.47
2023-04-30T10:43:33.118Z,98456.00
2023-04-30T10:46:36.960Z,98444.56
2023-04-30T10:49:42.432Z,98450.66
2023-04-30T10:52:45.309Z,98444.16
2023-04-30T10:55:50.035Z,98442.09
2023-04-30T10:58:54.167Z,98446.25
2023-04-30T11:01:59.309Z,98444.88
2023-04-30T11:05:13.877Z,98443.19
2023-04-30T11:08:16.990Z,98437.56
2023-04-30T11:11:22.075Z,98436.56
2023-04-30T11:14:26.209Z,98443.38
2023-04-30T11:17:29.766Z,98439.25
2023-04-30T11:20:32.484Z,98426.91
2023-04-30T11:23:40.469Z,98435.16
2023-04-30T11:27:13.988Z,98427.31
2023-04-30T11:30:19.398Z,98425.63
2023-04-30T11:33:23.503Z,98424.75
2023-04-30T11:36:29.637Z,98415.13
2023-04-30T11:39:36.685Z,98425.91
2023-04-30T11:42:41.555Z,98430.09
2023-04-30T11:46:10.285Z,98420.63
2023-04-30T11:49:13.277Z,98427.66
2023-04-30T11:52:15.974Z,98417.41
2023-04-30T11:55:20.175Z,98411.81
2023-04-30T11:58:23.027Z,98411.13
2023-04-30T12:01:29.095Z,98413.31
2023-04-30T12:04:31.820Z,98396.41
2023-04-30T12:07:35.423Z,98397.94
2023-04-30T12:10:38.170Z,98398.97
2023-04-30T12:13:40.771Z,98392.88
2023-04-30T12:16:49.207Z,98388.84
2023-04-30T12:19:52.989Z,98394.34
2023-04-30T12:22:56.530Z,98396.84
2023-04-30T12:26:00.704Z,98396.84
2023-04-30T12:29:05.248Z,98395.41
2023-04-30T12:32:09.431Z,98398.22
2023-04-30T12:35:16.550Z,98399.53
2023-04-30T12:38:20.329Z,98407.66
2023-04-30T12:41:23.050Z,98403.94
2023-04-30T12:44:27.700Z,98393.91
2023-04-30T12:47:32.177Z,98398.72
2023-04-30T12:50:35.457Z,98389.34
2023-04-30T12:53:46.251Z,98387.16
2023-04-30T12:56:59.160Z,98388.72
2023-04-30T13:00:03.889Z,98388.28
2023-04-30T13:03:08.495Z,98373.53
2023-04-30T13:06:11.475Z,98371.69
2023-04-30T13:09:14.227Z,98372.25
2023-04-30T13:12:16.965Z,98369.41
2023-04-30T13:15:20.073Z,98368.31
2023-04-30T13:18:24.042Z,98364.16
2023-04-30T13:21:27.848Z,98351.56
2023-04-30T13:24:31.263Z,98349.94
2023-04-30T13:27:34.090Z,98343.34
2023-04-30T13:30:37.113Z,98343.47
2023-04-30T13:33:41.538Z,98341.25
2023-04-30T13:36:44.265Z,98343.88
2023-04-30T13:39:46.979Z,98339.66
2023-04-30T13:42:49.963Z,98338.75
2023-04-30T13:45:52.698Z,98339.88
2023-04-30T13:48:56.964Z,98344.69
2023-04-30T13:51:59.660Z,98347.81
2023-04-30T13:55:03.735Z,98336.97
2023-04-30T13:58:06.401Z,98336.84
2023-04-30T14:01:10.396Z,98337.56
2023-04-30T14:04:15.162Z,98336.91
2023-04-30T14:07:18.433Z,98329.91
2023-04-30T14:10:21.175Z,98331.28
2023-04-30T14:13:24.022Z,98326.28
2023-04-30T14:16:27.398Z,98322.78
2023-04-30T14:19:31.627Z,98316.41
2023-04-30T14:22:38.490Z,98313.25
2023-04-30T14:25:41.446Z,98308.72
2023-04-30T14:28:44.110Z,98309.91
2023-04-30T14:31:47.401Z,98316.94
2023-04-30T14:34:51.584Z,98313.06
2023-04-30T14:37:54.315Z,98304.06
2023-04-30T14:40:57.046Z,98306.16
2023-04-30T14:43:59.722Z,98292.28
2023-04-30T14:47:02.599Z,98297.38
2023-04-30T14:50:07.428Z,98297.88
2023-04-30T14:53:11.357Z,98283.50
2023-04-30T14:56:14.139Z,98280.59
2023-04-30T14:59:17.812Z,98288.38
2023-04-30T15:02:21.338Z,98282.75
2023-04-30T15:05:26.112Z,98281.88
2023-04-30T15:08:28.778Z,98283.72
2023-04-30T15:11:31.532Z,98280.69
2023-04-30T15:14:34.295Z,98272.09
2023-04-30T15:17:37.776Z,98261.84
2023-04-30T15:20:41.961Z,98254.66
2023-04-30T15:23:45.837Z,98248.13
2023-04-30T15:26:48.673Z,98259.31
2023-04-30T15:29:51.400Z,98261.38
2023-04-30T15:32:54.198Z,98258.81
2023-04-30T15:35:59.414Z,98260.22
2023-04-30T15:39:02.103Z,98262.25
2023-04-30T15:42:04.802Z,98264.00
2023-04-30T15:45:09.047Z,98266.91
2023-04-30T15:48:11.855Z,98257.38
2023-04-30T15:51:15.978Z,98254.88
2023-04-30T15:54:19.139Z,98248.75
2023-04-30T15:57:22.036Z,98253.75
2023-04-30T16:00:27.318Z,98239.56
2023-04-30T16:03:30.196Z,98245.66
2023-04-30T16:06:34.593Z,98238.13
2023-04-30T16:09:38.090Z,98233.94
2023-04-30T16:12:41.230Z,98238.03
2023-04-30T16:15:44.032Z,98244.75
2023-04-30T16:18:46.934Z,98241.50
2023-04-30T16:21:51.128Z,98242.78
2023-04-30T16:24:54.179Z,98229.34
2023-04-30T16:27:56.943Z,98236.78
2023-04-30T16:30:59.860Z,98222.59
2023-04-30T16:34:02.672Z,98238.81
2023-04-30T16:37:06.671Z,98231.94
2023-04-30T16:40:11.601Z,98234.66
2023-04-30T16:43:14.421Z,98228.09
2023-04-30T16:46:18.323Z,98218.13
2023-04-30T16:49:22.406Z,98215.06
2023-04-30T16:52:26.602Z,98213.56
2023-04-30T16:55:29.461Z,98209.13
2023-04-30T16:58:32.155Z,98208.94
2023-04-30T17:01:35.373Z,98205.94
2023-04-30T17:04:38.089Z,98201.13
2023-04-30T17:07:43.332Z,98207.94
2023-04-30T17:10:46.055Z,98208.44
2023-04-30T17:13:48.818Z,98214.75
2023-04-30T17:16:51.555Z,98215.50
2023-04-30T17:19:54.581Z,98216.63
2023-04-30T17:22:59.208Z,98218.72
2023-04-30T17:26:03.852Z,98214.25
2023-04-30T17:29:06.855Z,98214.00
2023-04-30T17:32:10.508Z,98218.75
2023-04-30T17:35:13.835Z,98216.13
2023-04-30T17:38:17.953Z,98216.59
2023-04-30T17:41:21.041Z,98214.97
2023-04-30T17:44:23.802Z,98219.97
2023-04-30T17:47:26.618Z,98228.19
2023-04-30T17:50:29.347Z,98223.59
2023-04-30T17:53:33.713Z,98215.28
2023-04-30T17:56:36.590Z,98219.41
2023-04-30T17:59:39.699Z,98213.63
2023-04-30T18:02:43.169Z,98222.25
2023-04-30T18:05:45.988Z,98218.38
2023-04-30T18:08:50.182Z,98223.69
2023-04-30T18:11:53.269Z,98220.97
2023-04-30T18:14:56.041Z,98224.91
2023-04-30T18:17:59.228Z,98226.44
2023-04-30T18:21:02.233Z,98225.88
2023-04-30T18:24:06.742Z,98229.66
2023-04-30T18:27:10.199Z,98227.59
2023-04-30T18:30:13.496Z,98230.16
2023-04-30T18:33:16.303Z,98229.59
2023-04-30T18:36:19.029Z,98230.88
2023-04-30T18:39:23.063Z,98229.31
2023-04-30T18:42:25.792Z,98224.41
2023-04-30T18:45:28.569Z,98229.00
2023-04-30T18:48:31.269Z,98230.78
2023-04-30T18:51:33.964Z,98232.34
2023-04-30T18:54:38.094Z,98239.25
2023-04-30T18:57:42.386Z,98235.34
2023-04-30T19:00:45.492Z,98237.91
2023-04-30T19:03:48.452Z,98233.75
2023-04-30T19:06:52.283Z,98230.03
2023-04-30T19:09:56.939Z,98232.81
2023-04-30T19:13:00.017Z,98237.88
2023-04-30T19:16:04.214Z,98234.97
2023-04-30T19:19:06.940Z,98232.94
2023-04-30T19:22:09.785Z,98238.16
2023-04-30T19:25:14.127Z,98237.19
2023-04-30T19:28:16.944Z,98238.63
2023-04-30T19:31:19.884Z,98252.09
2023-04-30T19:34:23.146Z,98245.47
2023-04-30T19:37:26.860Z,98246.19
2023-04-30T19:40:31.007Z,98250.13
2023-04-30T19:43:33.996Z,98252.59
2023-04-30T19:46:36.836Z,98254.81
2023-04-30T19:49:39.677Z,98260.84
2023-04-30T19:52:42.446Z,98255.00
2023-04-30T19:55:46.989Z,98252.09
2023-04-30T19:58:49.761Z,98247.03
2023-04-30T20:01:53.468Z,98253.00
2023-04-30T20:04:56.718Z,98250.63
2023-04-30T20:07:59.790Z,98249.59
2023-04-30T20:11:04.177Z,98258.03
2023-04-30T20:14:06.914Z,98250.56
2023-04-30T20:17:09.826Z,98254.41
2023-04-30T20:20:13.472Z,98261.75
2023-04-30T20:23:17.661Z,98253.75
2023-04-30T20:26:21.824Z,98259.94
2023-04-30T20:29:24.509Z,98250.84
2023-04-30T20:32:27.258Z,98252.50
2023-04-30T20:35:30.009Z,98256.00
2023-04-30T20:38:32.700Z,98251.25
2023-04-30T20:41:36.749Z,98249.41
2023-04-30T20:44:39.453Z,98250.78
2023-04-30T20:47:42.351Z,98249.16
2023-04-30T20:50:45.496Z,98249.72
2023-04-30T20:53:48.334Z,98252.72
2023-04-30T20:56:52.384Z,98243.31
2023-04-30T20:59:55.403Z,98248.22
2023-04-30T21:02:58.443Z,98248.22
2023-04-30T21:06:01.436Z,98243.16
2023-04-30T21:09:04.226Z,98248.00
2023-04-30T21:12:08.447Z,98245.66
2023-04-30T21:15:12.138Z,98242.16
2023-04-30T21:18:14.840Z,98244.31
2023-04-30T21:21:17.566Z,98233.84
2023-04-30T21:24:20.995Z,98236.03
2023-04-30T21:27:25.031Z,98241.47
2023-04-30T21:30:27.841Z,98231.03
2023-04-30T21:33:31.067Z,98235.88
2023-04-30T21:36:35.295Z,98235.34
2023-04-30T21:39:38.077Z,98225.41
2023-04-30T21:42:42.249Z,98217.09
2023-04-30T21:45:45.180Z,98223.25
2023-04-30T21:48:48.304Z,98223.81
2023-04-30T21:51:51.001Z,98217.91
2023-04-30T21:54:53.754Z,98221.41
2023-04-30T21:57:57.943Z,98221.44
2023-04-30T22:01:00.739Z,98211.47
2023-04-30T22:04:04.602Z,98213.63
2023-04-30T22:07:07.467Z,98202.41
2023-04-30T22:10:10.769Z,98202.47
2023-04-30T22:13:15.073Z,98204.63
2023-04-30T22:16:17.780Z,98192.84
2023-04-30T22:19:20.444Z,98197.91
2023-04-30T22:22:23.194Z,98197.66
2023-04-30T22:25:25.902Z,98193.09
2023-04-30T22:28:30.027Z,98190.16
2023-04-30T22:31:32.755Z,98188.56
2023-04-30T22:34:38.396Z,98186.69
2023-04-30T22:37:41.187Z,98187.28
2023-04-30T22:40:43.851Z,98181.38
2023-04-30T22:43:48.164Z,98180.31
2023-04-30T22:46:51.165Z,98184.34
2023-04-30T22:49:56.061Z,98178.69
2023-04-30T22:52:59.364Z,98185.69
2023-04-30T22:56:02.126Z,98178.97
2023-04-30T22:59:06.635Z,98183.28
2023-04-30T23:02:09.307Z,98173.91
2023-04-30T23:05:12.821Z,98186.78
2023-04-30T23:08:15.690Z,98179.28
2023-04-30T23:11:18.670Z,98190.00
2023-04-30T23:14:22.763Z,98180.94
2023-04-30T23:17:26.876Z,98180.94
2023-04-30T23:20:29.720Z,98184.97
2023-04-30T23:23:32.580Z,98180.13
2023-04-30T23:26:35.373Z,98175.81
2023-04-30T23:29:39.374Z,98175.81
2023-04-30T23:32:42.225Z,98176.09
2023-04-30T23:35:45.808Z,98174.25
2023-04-30T23:38:48.601Z,98166.47
2023-04-30T23:41:52.144Z,98165.41
2023-04-30T23:44:56.201Z,98165.13
2023-04-30T23:47:58.962Z,98161.63
2023-04-30T23:51:02.349Z,98161.09
2023-04-30T23:54:05.795Z,98165.69
2023-04-30T23:57:08.557Z,98157.91
